Durand, Kansas
Current Conditions -  °F | °C
As of 3:52 PM on Friday 24 Oct 2014 (Local Time) from KCNU Reporting Station
Clear Clear  
Wind Chill: 73°   Ceiling: Unl
Heat Index: 73°   Visibility: 10mi
Dew Point: 62°   Wind: 10mph
Humidity: 68%   Direction: 220°SW
Pressure: 30.01"   Gusts: NA
Location:  37.893°N, 95.7469°W
Report Text: KCNU 242052Z AUTO 22009KT 10SM CLR 23/17 A3001 RMK AO2 SLP157 T02280167 56017
Loading
Personal Weather Stations






























Interactive Weather Map
Tropical Storm Tracking
New forecast layout! Learn more

10-Day Weather Forecast

Advertisements
Track Severe Weather on mobile